Time;durP1;ratioP1;P1;durP2;ratioP2;P2;SDS_P1;SDS_P2;PMS_P1;PMS_P2;Temp;Humidity;BMP_temperature;BMP_pressure;BME280_temperature;BME280_humidity;BME280_pressure;Samples;Min_cycle;Max_cycle;Signal;HPM_P1;HPM_P2
2021/12/01 00:00:55;;;;;;;4.63;2.05;;;9.00;99.90;;;;;;4920142;29;20035;-93
2021/12/01 00:03:22;;;;;;;4.35;2.00;;;9.00;99.90;;;;;;4920522;29;20030;-94
2021/12/01 00:05:48;;;;;;;2.20;1.27;;;8.90;99.90;;;;;;4920451;29;20500;-94
2021/12/01 00:08:14;;;;;;;1.30;1.20;;;8.90;99.90;;;;;;4920451;29;20489;-92
2021/12/01 00:10:41;;;;;;;1.27;0.82;;;8.90;99.90;;;;;;4921180;29;20047;-94
2021/12/01 00:13:12;;;;;;;2.95;1.40;;;8.90;99.90;;;;;;4922729;29;20032;-94
2021/12/01 00:15:38;;;;;;;;;;;8.90;99.90;;;;;;4921802;29;20100;-93
2021/12/01 00:18:04;;;;;;;2.28;1.13;;;8.90;99.90;;;;;;4921453;29;19953;-94
2021/12/01 00:20:30;;;;;;;3.92;1.50;;;8.80;99.90;;;;;;4920862;29;20057;-93
2021/12/01 00:22:56;;;;;;;2.55;1.73;;;8.80;99.90;;;;;;4920948;29;20131;-93
2021/12/01 00:25:23;;;;;;;4.75;1.15;;;8.80;99.90;;;;;;4920835;29;20145;-95
2021/12/01 00:27:54;;;;;;;5.57;1.45;;;8.80;99.90;;;;;;4920576;29;20043;-93
2021/12/01 00:30:21;;;;;;;2.70;1.30;;;8.80;99.90;;;;;;4920844;29;20516;-94
2021/12/01 00:32:47;;;;;;;4.40;1.58;;;8.90;99.90;;;;;;4921236;29;20032;-94
2021/12/01 00:35:13;;;;;;;5.30;1.30;;;8.80;99.90;;;;;;4921145;29;20035;-93
2021/12/01 00:37:42;;;;;;;4.85;0.90;;;8.80;99.90;;;;;;4927186;29;20083;-93
2021/12/01 00:40:10;;;;;;;1.80;0.47;;;8.80;99.90;;;;;;4928708;29;20034;-95
2021/12/01 00:42:36;;;;;;;7.47;0.90;;;8.80;99.90;;;;;;4932024;29;20032;-94
2021/12/01 00:45:09;;;;;;;2.15;1.17;;;8.80;99.90;;;;;;4927752;29;20042;-93
2021/12/01 00:47:46;;;;;;;5.28;0.70;;;8.80;99.90;;;;;;4928468;29;20466;-94
2021/12/01 00:50:16;;;;;;;2.35;0.60;;;8.70;99.90;;;;;;4925869;29;20036;-95
2021/12/01 00:52:42;;;;;;;5.85;0.77;;;8.80;99.90;;;;;;4925928;29;20020;-93
2021/12/01 00:55:08;;;;;;;5.88;0.70;;;8.70;99.90;;;;;;4926892;29;20118;-93
2021/12/01 00:57:34;;;;;;;8.85;1.83;;;8.70;99.90;;;;;;4942977;29;20032;-92
2021/12/01 01:00:01;;;;;;;11.80;1.10;;;8.60;99.90;;;;;;4925350;29;20019;-93
2021/12/01 01:02:26;;;;;;;11.73;1.08;;;8.60;99.90;;;;;;4925236;29;20362;-93
2021/12/01 01:04:52;;;;;;;4.50;0.85;;;8.50;99.90;;;;;;4924611;29;20070;-94
2021/12/01 01:07:18;;;;;;;4.35;0.80;;;8.50;99.90;;;;;;4926172;29;20028;-93
2021/12/01 01:09:44;;;;;;;5.13;0.80;;;8.50;99.90;;;;;;4928346;29;20039;-93
2021/12/01 01:17:41;;;;;;;4.15;0.60;;;8.40;99.90;;;;;;4951288;29;20161;-96
2021/12/01 01:20:13;;;;;;;1.02;0.40;;;8.30;99.90;;;;;;4934215;29;20028;-93
2021/12/01 01:22:39;;;;;;;5.03;0.50;;;8.20;99.90;;;;;;4925350;29;20039;-94
2021/12/01 01:25:07;;;;;;;4.90;1.50;;;8.10;99.90;;;;;;4923956;29;20048;-93
2021/12/01 01:27:34;;;;;;;4.88;0.50;;;8.10;99.90;;;;;;4925836;29;20024;-93
2021/12/01 01:30:00;;;;;;;3.17;0.57;;;8.00;99.90;;;;;;4959217;28;20036;-94
2021/12/01 01:32:26;;;;;;;7.00;0.98;;;8.00;99.90;;;;;;4929157;29;20114;-94
2021/12/01 01:34:52;;;;;;;6.82;0.70;;;7.90;99.90;;;;;;4928538;29;20115;-93
2021/12/01 01:37:18;;;;;;;3.85;0.65;;;7.90;99.90;;;;;;4927471;29;20613;-93
2021/12/01 01:39:43;;;;;;;4.78;0.60;;;7.90;99.90;;;;;;4924738;29;20470;-92
2021/12/01 01:42:09;;;;;;;4.45;1.10;;;7.80;99.90;;;;;;4924812;29;20039;-95
2021/12/01 01:44:35;;;;;;;4.38;0.82;;;7.80;99.90;;;;;;4925804;29;20076;-95
2021/12/01 01:47:01;;;;;;;3.58;0.77;;;7.70;99.90;;;;;;4924507;29;20035;-93
2021/12/01 01:52:11;;;;;;;2.38;0.32;;;7.60;99.90;;;;;;4939678;29;20024;-93
2021/12/01 01:54:37;;;;;;;6.00;0.88;;;7.50;99.90;;;;;;4923153;29;20027;-93
2021/12/01 01:57:05;;;;;;;10.13;1.17;;;7.50;99.90;;;;;;4923328;29;20024;-93
2021/12/01 01:59:31;;;;;;;6.75;1.17;;;7.40;99.90;;;;;;4954915;28;20055;-93
2021/12/01 02:01:58;;;;;;;8.43;0.88;;;7.40;99.90;;;;;;4922937;29;20034;-92
2021/12/01 02:04:26;;;;;;;10.57;1.08;;;7.40;99.90;;;;;;4923811;29;20035;-95
2021/12/01 02:06:55;;;;;;;4.63;0.80;;;7.40;99.90;;;;;;4923008;29;20078;-95
2021/12/01 02:09:23;;;;;;;4.85;0.70;;;7.40;99.90;;;;;;4922732;29;20400;-94
2021/12/01 02:11:51;;;;;;;3.80;0.82;;;7.40;99.90;;;;;;4922878;29;20142;-94
2021/12/01 02:14:17;;;;;;;9.27;1.15;;;7.40;99.90;;;;;;4955254;28;20027;-95
2021/12/01 02:16:43;;;;;;;1.80;0.60;;;7.30;99.90;;;;;;4922637;29;20034;-94
2021/12/01 02:19:09;;;;;;;6.68;0.80;;;7.30;99.90;;;;;;4926662;29;20076;-93
2021/12/01 02:21:35;;;;;;;6.22;0.82;;;7.30;99.90;;;;;;4930733;29;20028;-93
2021/12/01 02:24:07;;;;;;;4.22;0.55;;;7.20;99.90;;;;;;4923193;29;20076;-93
2021/12/01 02:26:38;;;;;;;8.77;1.65;;;7.20;99.90;;;;;;4922072;29;20051;-94
2021/12/01 02:29:06;;;;;;;10.05;1.13;;;7.20;99.90;;;;;;4954561;29;20035;-94
2021/12/01 02:31:36;;;;;;;3.88;0.50;;;7.10;99.90;;;;;;4923116;29;20028;-93
2021/12/01 02:34:09;;;;;;;4.03;0.35;;;7.00;99.90;;;;;;4923227;29;20027;-95
2021/12/01 02:36:36;;;;;;;2.03;0.60;;;7.00;99.90;;;;;;4922467;29;20043;-95
2021/12/01 02:39:09;;;;;;;6.72;0.47;;;6.90;99.90;;;;;;4921064;29;20031;-93
2021/12/01 02:41:36;;;;;;;2.67;0.30;;;6.90;99.90;;;;;;4923658;29;20115;-94
2021/12/01 02:44:04;;;;;;;1.02;0.40;;;6.80;99.90;;;;;;4925175;29;20058;-93
2021/12/01 02:46:31;;;;;;;1.30;0.20;;;6.80;99.90;;;;;;4922059;29;20027;-94
2021/12/01 02:48:57;;;;;;;0.80;0.08;;;6.70;99.90;;;;;;4922496;29;20398;-93
2021/12/01 02:51:27;;;;;;;2.55;0.40;;;6.70;99.90;;;;;;4922108;29;20087;-93
2021/12/01 02:53:54;;;;;;;0.75;0.40;;;6.70;99.90;;;;;;4920666;29;20139;-94
2021/12/01 02:56:22;;;;;;;0.52;0.13;;;6.60;99.90;;;;;;4921556;29;20039;-94
2021/12/01 02:58:49;;;;;;;0.30;0.10;;;6.50;99.90;;;;;;4952778;28;20034;-93
2021/12/01 03:01:19;;;;;;;0.40;0.15;;;6.50;99.90;;;;;;4921150;29;20550;-95
2021/12/01 03:03:45;;;;;;;0.52;0.13;;;6.50;99.90;;;;;;4921097;29;20032;-94
2021/12/01 03:06:12;;;;;;;1.08;0.15;;;6.40;99.90;;;;;;4920871;29;20035;-94
2021/12/01 03:08:40;;;;;;;0.40;0.35;;;6.40;99.90;;;;;;4920684;29;20482;-93
2021/12/01 03:11:09;;;;;;;0.30;0.08;;;6.30;99.90;;;;;;4921071;29;20064;-96
2021/12/01 03:13:35;;;;;;;0.10;0.00;;;6.30;99.90;;;;;;4919810;29;20083;-93
2021/12/01 03:16:01;;;;;;;2.00;0.05;;;6.20;99.90;;;;;;4919119;29;20106;-93
2021/12/01 03:18:27;;;;;;;0.20;0.17;;;6.20;99.90;;;;;;4919829;29;20477;-94
2021/12/01 03:20:54;;;;;;;0.15;0.10;;;6.10;99.90;;;;;;4923213;29;20033;-93
2021/12/01 03:23:25;;;;;;;0.35;0.05;;;6.00;99.90;;;;;;4920974;29;20474;-95
2021/12/01 03:25:51;;;;;;;0.10;0.10;;;6.00;99.90;;;;;;4927276;29;20040;-93
2021/12/01 03:28:17;;;;;;;0.00;0.00;;;6.00;99.90;;;;;;4920817;29;20031;-93
2021/12/01 03:30:44;;;;;;;0.00;0.00;;;5.90;99.90;;;;;;4919441;29;20063;-93
2021/12/01 03:33:12;;;;;;;0.28;0.10;;;5.90;99.90;;;;;;4921054;29;20027;-92
2021/12/01 03:35:43;;;;;;;0.10;0.10;;;5.80;99.90;;;;;;4921097;29;20027;-93
2021/12/01 03:38:09;;;;;;;0.25;0.10;;;5.80;99.90;;;;;;4923144;29;20506;-91
2021/12/01 03:40:35;;;;;;;0.10;0.10;;;5.80;99.90;;;;;;4932817;29;20024;-93
2021/12/01 03:43:01;;;;;;;0.10;0.10;;;5.80;99.90;;;;;;4928889;29;20039;-92
2021/12/01 03:45:27;;;;;;;0.52;0.15;;;5.80;99.90;;;;;;4921132;29;20020;-92
2021/12/01 03:47:53;;;;;;;0.10;0.08;;;5.80;99.90;;;;;;4921180;29;20466;-92
2021/12/01 03:50:18;;;;;;;0.25;0.13;;;5.80;99.90;;;;;;4921950;29;20049;-92
2021/12/01 03:52:44;;;;;;;1.98;0.22;;;5.80;99.90;;;;;;4919928;29;20055;-93
2021/12/01 03:55:10;;;;;;;0.10;0.10;;;5.80;99.90;;;;;;4922186;29;20114;-92
2021/12/01 03:57:37;;;;;;;0.20;0.05;;;5.80;99.90;;;;;;4925157;29;20109;-92
2021/12/01 04:00:08;;;;;;;0.28;0.05;;;5.80;99.90;;;;;;4926822;29;20023;-93
2021/12/01 04:02:34;;;;;;;1.98;0.25;;;5.80;99.90;;;;;;4943850;29;20024;-92
2021/12/01 04:05:04;;;;;;;0.20;0.10;;;5.80;99.90;;;;;;4931151;29;20019;-93
2021/12/01 04:07:30;;;;;;;1.67;0.10;;;5.80;99.90;;;;;;4929883;29;20047;-93
2021/12/01 04:09:55;;;;;;;0.13;0.10;;;5.80;99.90;;;;;;4929210;29;20504;-91
2021/12/01 04:12:21;;;;;;;0.25;0.20;;;5.80;99.90;;;;;;4925828;29;20031;-93
2021/12/01 04:14:47;;;;;;;0.52;0.20;;;5.80;99.90;;;;;;4921441;29;20028;-91
2021/12/01 04:17:13;;;;;;;0.32;0.10;;;5.80;99.90;;;;;;4925363;29;20091;-93
2021/12/01 04:19:38;;;;;;;1.88;0.10;;;5.80;99.90;;;;;;4927257;29;20019;-92
2021/12/01 04:22:04;;;;;;;0.43;0.20;;;5.80;99.90;;;;;;4924801;29;20038;-93
2021/12/01 04:24:33;;;;;;;0.20;0.20;;;5.80;99.90;;;;;;4925507;29;20031;-93
2021/12/01 04:26:59;;;;;;;0.30;0.20;;;5.80;99.90;;;;;;4923541;29;20035;-95
2021/12/01 04:29:26;;;;;;;0.20;0.10;;;5.80;99.90;;;;;;4938856;29;20046;-92
2021/12/01 04:31:52;;;;;;;0.13;0.10;;;5.80;99.90;;;;;;4922247;29;20063;-94
2021/12/01 04:34:20;;;;;;;1.17;0.20;;;5.80;99.90;;;;;;4923558;29;20120;-94
2021/12/01 04:36:48;;;;;;;2.58;0.20;;;5.80;99.90;;;;;;4918921;29;20024;-94
2021/12/01 04:39:16;;;;;;;2.08;0.40;;;5.80;99.90;;;;;;4922649;29;20114;-93
2021/12/01 04:41:53;;;;;;;0.52;0.20;;;5.90;99.90;;;;;;4923127;29;20478;-94
2021/12/01 04:44:21;;;;;;;0.17;0.10;;;5.90;99.90;;;;;;4923149;29;20028;-96
2021/12/01 04:46:48;;;;;;;0.98;0.30;;;5.90;99.90;;;;;;4922898;29;20082;-94
2021/12/01 04:49:19;;;;;;;1.45;0.40;;;5.90;99.90;;;;;;4922619;29;20031;-94
2021/12/01 04:51:49;;;;;;;1.10;0.30;;;5.90;99.90;;;;;;4922698;29;20406;-94
2021/12/01 04:54:16;;;;;;;4.07;0.30;;;5.90;99.90;;;;;;4922776;29;20028;-93
2021/12/01 04:56:44;;;;;;;1.60;0.20;;;5.90;99.90;;;;;;4922834;29;20491;-95
2021/12/01 04:59:10;;;;;;;0.77;0.60;;;6.00;99.90;;;;;;4922672;29;20138;-92
2021/12/01 05:01:36;;;;;;;2.05;0.60;;;6.00;99.90;;;;;;4922486;29;20505;-94
2021/12/01 05:04:04;;;;;;;1.73;1.00;;;6.00;99.90;;;;;;4922527;29;20039;-94
2021/12/01 05:06:29;;;;;;;2.47;0.47;;;6.10;99.90;;;;;;4922564;29;20039;-93
2021/12/01 05:08:55;;;;;;;3.78;0.60;;;6.10;99.90;;;;;;4922448;29;20031;-93
2021/12/01 05:11:21;;;;;;;4.78;0.60;;;6.20;99.90;;;;;;4922546;29;20401;-93
2021/12/01 05:13:47;;;;;;;4.43;0.77;;;6.10;99.90;;;;;;4928069;29;20521;-94
2021/12/01 05:16:12;;;;;;;6.82;0.50;;;6.20;99.90;;;;;;4930231;29;20359;-95
2021/12/01 05:18:38;;;;;;;0.35;0.30;;;6.20;99.90;;;;;;4922523;29;20027;-94
2021/12/01 05:21:04;;;;;;;4.70;0.80;;;6.30;99.90;;;;;;4921592;29;20023;-95
2021/12/01 05:23:31;;;;;;;5.60;0.70;;;6.30;99.90;;;;;;4937869;29;20038;-93
2021/12/01 05:25:56;;;;;;;7.40;1.02;;;6.30;99.90;;;;;;4940976;29;20050;-94
2021/12/01 05:28:22;;;;;;;7.40;0.93;;;6.30;99.90;;;;;;4940760;29;20054;-95
2021/12/01 05:30:48;;;;;;;2.95;0.68;;;6.30;99.90;;;;;;4941390;29;20111;-94
2021/12/01 05:33:15;;;;;;;7.00;0.85;;;6.40;99.90;;;;;;4941046;29;20019;-94
2021/12/01 05:35:42;;;;;;;6.90;1.00;;;6.40;99.90;;;;;;4940699;29;20032;-93
2021/12/01 05:38:09;;;;;;;2.47;0.50;;;6.40;99.90;;;;;;4941269;29;20137;-94
2021/12/01 05:40:35;;;;;;;8.95;0.85;;;6.40;99.90;;;;;;4941592;29;20034;-94
2021/12/01 05:43:01;;;;;;;6.70;1.00;;;6.40;99.90;;;;;;4943317;29;20031;-94
2021/12/01 05:45:26;;;;;;;1.30;0.50;;;6.50;99.90;;;;;;4941006;29;20031;-95
2021/12/01 05:47:52;;;;;;;7.60;0.77;;;6.50;99.90;;;;;;4940832;29;20085;-93
2021/12/01 05:50:19;;;;;;;7.63;0.80;;;6.50;99.90;;;;;;4941154;29;20110;-94
2021/12/01 05:52:44;;;;;;;5.93;0.95;;;6.50;99.90;;;;;;4940577;29;20031;-93
2021/12/01 05:55:13;;;;;;;8.07;1.00;;;6.60;99.90;;;;;;4940749;29;20050;-94
2021/12/01 05:57:39;;;;;;;6.22;1.30;;;6.60;99.90;;;;;;4940834;29;20027;-94
2021/12/01 06:00:08;;;;;;;6.75;1.02;;;6.70;99.90;;;;;;4940810;29;20122;-93
2021/12/01 06:02:34;;;;;;;12.25;1.80;;;6.70;99.90;;;;;;4940858;29;20028;-93
2021/12/01 06:05:00;;;;;;;8.30;1.98;;;6.80;99.90;;;;;;4940841;29;20023;-94
2021/12/01 06:07:26;;;;;;;13.07;1.75;;;6.80;99.90;;;;;;4940653;29;20488;-95
2021/12/01 06:09:52;;;;;;;8.45;1.27;;;6.90;99.90;;;;;;4940394;29;20039;-93
2021/12/01 06:12:18;;;;;;;16.35;1.52;;;6.90;99.90;;;;;;4940223;29;20030;-93
2021/12/01 06:14:45;;;;;;;7.25;1.15;;;6.90;99.90;;;;;;4940075;29;20031;-93
2021/12/01 06:17:13;;;;;;;7.78;1.00;;;6.90;99.90;;;;;;4940407;29;20083;-94
2021/12/01 06:19:40;;;;;;;15.52;1.55;;;6.90;99.90;;;;;;4940177;29;20058;-94
2021/12/01 06:22:07;;;;;;;9.98;1.90;;;7.00;99.90;;;;;;4940336;29;20081;-93
2021/12/01 06:24:34;;;;;;;16.67;2.50;;;6.90;99.90;;;;;;4934074;28;20027;-94
2021/12/01 06:27:00;;;;;;;9.45;1.75;;;7.00;99.90;;;;;;4949473;29;20031;-93
2021/12/01 06:29:29;;;;;;;15.32;2.13;;;6.90;99.90;;;;;;4930033;29;20488;-93
2021/12/01 06:31:54;;;;;;;14.57;1.50;;;6.90;99.90;;;;;;4927527;29;20027;-93
2021/12/01 06:34:20;;;;;;;10.80;2.40;;;7.00;99.90;;;;;;4928128;29;20127;-94
2021/12/01 06:36:46;;;;;;;15.02;2.25;;;6.90;99.90;;;;;;4930295;29;20039;-94
2021/12/01 06:39:12;;;;;;;8.45;1.05;;;7.00;99.90;;;;;;4929846;29;20095;-93
2021/12/01 06:41:37;;;;;;;13.52;2.05;;;7.00;99.90;;;;;;4927318;29;20030;-93
2021/12/01 06:44:03;;;;;;;11.73;1.30;;;7.00;99.90;;;;;;4953548;28;20031;-94
2021/12/01 06:46:30;;;;;;;11.98;1.52;;;7.00;99.90;;;;;;4929177;29;20024;-93
2021/12/01 06:48:57;;;;;;;7.93;1.05;;;7.00;99.90;;;;;;4926822;29;20086;-93
2021/12/01 06:51:23;;;;;;;13.20;2.40;;;7.00;99.90;;;;;;4932835;29;20078;-93
2021/12/01 06:53:50;;;;;;;12.45;1.20;;;7.00;99.90;;;;;;4939288;29;20035;-93
2021/12/01 06:56:19;;;;;;;9.98;1.45;;;7.00;99.90;;;;;;4939645;29;20023;-94
2021/12/01 06:58:45;;;;;;;7.25;1.45;;;7.00;99.90;;;;;;4936681;29;20019;-94
2021/12/01 07:01:12;;;;;;;10.43;1.77;;;7.00;99.90;;;;;;4940613;29;20047;-93
2021/12/01 07:03:39;;;;;;;9.38;1.13;;;7.00;99.90;;;;;;4937295;29;20019;-93
2021/12/01 07:06:05;;;;;;;14.27;1.73;;;6.90;99.90;;;;;;4936175;29;20027;-94
2021/12/01 07:08:30;;;;;;;12.35;1.20;;;6.90;99.90;;;;;;4929713;29;20030;-93
2021/12/01 07:10:56;;;;;;;12.85;1.42;;;6.90;99.90;;;;;;4930368;29;20031;-93
2021/12/01 07:13:22;;;;;;;11.90;1.50;;;6.90;99.90;;;;;;4930276;29;20023;-93
2021/12/01 07:15:48;;;;;;;9.05;1.35;;;6.90;99.90;;;;;;4929154;29;20039;-93
2021/12/01 07:18:14;;;;;;;15.15;1.80;;;6.80;99.90;;;;;;4931278;29;20108;-92
2021/12/01 07:20:40;;;;;;;11.25;2.35;;;6.80;99.90;;;;;;4928140;29;20393;-94
2021/12/01 07:23:05;;;;;;;9.93;1.52;;;6.80;99.90;;;;;;4926892;29;20024;-93
2021/12/01 07:25:32;;;;;;;7.80;2.92;;;6.80;99.90;;;;;;4927705;29;20506;-92
2021/12/01 07:27:58;;;;;;;13.55;1.40;;;6.80;99.90;;;;;;4929170;29;20023;-93
2021/12/01 07:30:24;;;;;;;12.98;1.42;;;6.80;99.90;;;;;;4928843;29;20046;-93
2021/12/01 07:32:50;;;;;;;12.45;1.67;;;6.80;99.90;;;;;;4952563;28;20056;-93
2021/12/01 07:35:16;;;;;;;12.07;1.48;;;6.80;99.90;;;;;;4929549;29;20023;-93
2021/12/01 07:37:42;;;;;;;11.77;1.95;;;6.80;99.90;;;;;;4928101;29;20028;-92
2021/12/01 07:40:09;;;;;;;8.88;1.40;;;6.70;99.90;;;;;;4927455;29;20456;-93
2021/12/01 07:42:37;;;;;;;14.35;1.65;;;6.70;99.90;;;;;;4929835;29;20039;-93
2021/12/01 07:45:04;;;;;;;10.18;1.40;;;6.70;99.90;;;;;;4924040;29;20030;-92
2021/12/01 07:47:31;;;;;;;9.35;2.38;;;6.70;99.90;;;;;;4923741;29;20043;-93
2021/12/01 07:50:00;;;;;;;13.88;1.83;;;6.70;99.90;;;;;;4920084;29;20047;-93
2021/12/01 07:52:25;;;;;;;13.20;1.50;;;6.70;99.90;;;;;;4922343;29;20389;-94
2021/12/01 07:54:51;;;;;;;23.45;2.33;;;6.60;99.90;;;;;;4923644;29;20019;-93
2021/12/01 07:57:17;;;;;;;12.13;1.50;;;6.60;99.90;;;;;;4925508;29;20075;-93
2021/12/01 07:59:43;;;;;;;15.75;1.73;;;6.60;99.90;;;;;;4922836;29;20510;-92
2021/12/01 08:02:09;;;;;;;10.40;1.65;;;6.60;99.90;;;;;;4922031;29;20059;-92
2021/12/01 08:04:34;;;;;;;18.30;2.10;;;6.60;99.90;;;;;;4922578;29;20032;-92
2021/12/01 08:07:01;;;;;;;11.77;2.47;;;6.60;99.90;;;;;;4923046;29;20028;-91
2021/12/01 08:09:27;;;;;;;15.48;1.98;;;6.60;99.90;;;;;;4922638;29;20028;-91
2021/12/01 08:11:54;;;;;;;28.77;2.22;;;6.60;99.90;;;;;;4922874;29;20508;-91
2021/12/01 08:14:20;;;;;;;15.23;2.42;;;6.60;99.90;;;;;;4923414;29;20098;-92
2021/12/01 08:16:46;;;;;;;14.68;2.50;;;6.60;99.90;;;;;;4923911;29;20032;-91
2021/12/01 08:19:12;;;;;;;20.40;1.88;;;6.60;99.90;;;;;;4923999;29;20480;-92
2021/12/01 08:21:38;;;;;;;7.68;1.33;;;6.60;99.90;;;;;;4922913;29;20023;-92
2021/12/01 08:24:04;;;;;;;7.10;1.08;;;6.60;99.90;;;;;;4931176;29;20173;-93
2021/12/01 08:26:30;;;;;;;10.70;1.10;;;6.60;99.90;;;;;;4932305;29;20051;-92
2021/12/01 08:28:57;;;;;;;10.43;1.58;;;6.60;99.90;;;;;;4931485;29;20419;-93
2021/12/01 08:31:23;;;;;;;9.38;1.50;;;6.60;99.90;;;;;;4932013;29;20122;-93
2021/12/01 08:33:49;;;;;;;12.88;2.53;;;6.60;99.90;;;;;;4932191;29;20114;-93
2021/12/01 08:36:16;;;;;;;11.25;2.47;;;6.60;99.90;;;;;;4933446;29;20176;-94
2021/12/01 08:38:42;;;;;;;14.40;2.35;;;6.60;99.90;;;;;;4937942;29;20034;-92
2021/12/01 08:41:09;;;;;;;15.88;1.70;;;6.50;99.90;;;;;;4928114;29;20034;-94
2021/12/01 08:43:35;;;;;;;18.05;2.33;;;6.60;99.90;;;;;;4922936;29;20028;-93
2021/12/01 08:46:02;;;;;;;9.45;1.88;;;6.50;99.90;;;;;;4923390;29;20067;-93
2021/12/01 08:48:28;;;;;;;18.23;2.92;;;6.60;99.90;;;;;;4922889;29;20064;-93
2021/12/01 08:51:01;;;;;;;13.77;1.63;;;6.60;99.90;;;;;;4923569;29;20063;-93
2021/12/01 08:53:28;;;;;;;21.63;2.63;;;6.60;99.90;;;;;;4923729;29;20024;-94
2021/12/01 08:55:54;;;;;;;11.57;1.90;;;6.60;99.90;;;;;;4924256;29;20035;-93
2021/12/01 08:58:26;;;;;;;20.58;2.45;;;6.60;99.90;;;;;;4932286;29;20031;-93
2021/12/01 09:00:54;;;;;;;17.65;1.90;;;6.60;99.90;;;;;;4923676;29;20198;-94
2021/12/01 09:03:23;;;;;;;12.57;1.75;;;6.60;99.90;;;;;;4915105;29;20052;-93
2021/12/01 09:05:49;;;;;;;14.68;2.15;;;6.60;99.90;;;;;;4917454;29;20039;-94
2021/12/01 09:08:18;;;;;;;24.33;2.53;;;6.70;99.90;;;;;;4921770;29;20024;-92
2021/12/01 09:10:44;;;;;;;15.20;1.65;;;6.70;99.90;;;;;;4920941;29;20035;-93
2021/12/01 09:13:10;;;;;;;9.35;1.80;;;6.70;99.90;;;;;;4922301;29;20126;-94
2021/12/01 09:15:38;;;;;;;7.75;1.35;;;6.70;99.90;;;;;;4909643;29;20043;-92
2021/12/01 09:18:04;;;;;;;6.00;0.90;;;6.60;99.90;;;;;;4922265;29;20544;-94
2021/12/01 09:20:30;;;;;;;4.32;1.17;;;6.60;99.90;;;;;;4928609;29;20055;-94
2021/12/01 09:22:56;;;;;;;6.65;1.17;;;6.50;99.90;;;;;;4927871;29;20071;-93
2021/12/01 09:25:25;;;;;;;3.53;0.57;;;6.40;99.90;;;;;;4928697;29;20611;-93
2021/12/01 09:27:52;;;;;;;8.00;1.05;;;6.40;99.90;;;;;;4927045;29;20040;-95
2021/12/01 09:30:18;;;;;;;7.25;1.27;;;6.40;99.90;;;;;;4926445;29;20405;-93
2021/12/01 09:32:45;;;;;;;15.52;2.78;;;6.40;99.90;;;;;;4924027;29;20027;-92
2021/12/01 09:35:14;;;;;;;8.68;1.63;;;6.30;99.90;;;;;;4927526;29;20054;-92
2021/12/01 09:37:41;;;;;;;7.00;1.40;;;6.40;99.90;;;;;;4941138;29;20449;-92
2021/12/01 09:40:13;;;;;;;10.95;1.17;;;6.50;99.90;;;;;;4941748;29;20516;-93
2021/12/01 09:42:44;;;;;;;15.25;1.80;;;6.70;99.90;;;;;;4941712;29;20038;-94
2021/12/01 09:45:10;;;;;;;;;;;7.00;99.90;;;;;;4943127;29;20043;-95
2021/12/01 09:47:36;;;;;;;22.50;3.63;;;7.20;99.90;;;;;;4943301;29;20308;-93
2021/12/01 09:50:02;;;;;;;10.30;1.63;;;7.40;99.90;;;;;;4949444;29;20032;-94
2021/12/01 09:52:28;;;;;;;11.50;1.42;;;7.70;99.90;;;;;;4952111;29;20035;-94
2021/12/01 09:54:53;;;;;;;8.00;1.50;;;7.80;99.90;;;;;;4951077;29;20034;-93
2021/12/01 09:57:19;;;;;;;10.88;1.00;;;7.70;99.90;;;;;;4955194;29;20027;-94
2021/12/01 09:59:52;;;;;;;5.57;0.75;;;7.60;99.90;;;;;;4955634;29;20027;-94
2021/12/01 10:02:18;;;;;;;3.38;0.47;;;7.40;99.90;;;;;;4953173;29;20023;-93
2021/12/01 10:04:48;;;;;;;2.80;0.60;;;7.10;99.90;;;;;;4952064;29;20027;-94
2021/12/01 10:07:18;;;;;;;3.45;0.57;;;6.90;99.90;;;;;;4949951;29;20027;-94
2021/12/01 10:09:47;;;;;;;1.58;0.43;;;6.70;99.90;;;;;;4944942;29;20030;-94
2021/12/01 10:12:14;;;;;;;5.93;1.83;;;6.60;99.90;;;;;;4943375;29;20097;-94
2021/12/01 10:14:45;;;;;;;3.38;0.57;;;6.50;99.90;;;;;;4941149;29;20086;-95
2021/12/01 10:17:12;;;;;;;9.07;1.00;;;6.50;99.90;;;;;;4941222;29;20039;-94
2021/12/01 10:19:38;;;;;;;7.65;1.27;;;6.50;99.90;;;;;;4942567;29;20049;-92
2021/12/01 10:22:09;;;;;;;10.93;1.85;;;6.50;99.90;;;;;;4941272;29;20541;-94
2021/12/01 10:24:37;;;;;;;9.15;1.38;;;6.70;99.90;;;;;;4940206;29;20027;-92
2021/12/01 10:27:09;;;;;;;9.02;1.10;;;7.00;99.90;;;;;;4940130;29;20114;-93
2021/12/01 10:29:52;;;;;;;12.15;1.92;;;7.40;99.90;;;;;;4940366;29;20027;-93
2021/12/01 10:32:19;;;;;;;11.15;2.50;;;7.80;99.90;;;;;;4940746;29;20027;-95
2021/12/01 10:34:57;;;;;;;13.35;1.55;;;8.10;99.90;;;;;;4940396;29;20090;-95
2021/12/01 10:37:31;;;;;;;12.48;2.15;;;8.30;99.90;;;;;;4940626;29;20031;-94
2021/12/01 10:40:08;;;;;;;11.18;1.45;;;8.50;99.90;;;;;;4922697;29;20032;-93
2021/12/01 10:42:49;;;;;;;8.75;1.42;;;8.60;99.90;;;;;;4921330;29;20118;-93
2021/12/01 10:45:18;;;;;;;15.93;3.58;;;8.50;99.90;;;;;;4921461;29;20031;-93
2021/12/01 10:47:57;;;;;;;18.45;3.53;;;8.30;99.90;;;;;;4934229;29;20028;-96
2021/12/01 10:50:26;;;;;;;12.98;2.17;;;8.10;99.90;;;;;;4927306;29;20063;-94
2021/12/01 10:53:07;;;;;;;9.05;1.70;;;8.00;99.90;;;;;;4920623;29;20031;-93
2021/12/01 10:55:48;;;;;;;16.00;1.77;;;7.80;99.90;;;;;;4920554;29;20023;-94
2021/12/01 10:58:15;;;;;;;16.85;4.15;;;7.60;99.90;;;;;;4920280;29;20061;-93
2021/12/01 11:00:43;;;;;;;8.07;1.50;;;7.50;99.90;;;;;;4920115;29;20032;-92
2021/12/01 11:03:17;;;;;;;11.63;1.73;;;7.50;99.90;;;;;;4919953;29;20096;-93
2021/12/01 11:05:44;;;;;;;8.98;1.50;;;7.40;99.90;;;;;;4920054;29;20027;-93
2021/12/01 11:08:18;;;;;;;12.35;2.25;;;7.40;99.90;;;;;;4920401;29;20048;-92
2021/12/01 11:11:11;;;;;;;11.45;1.33;;;7.30;99.90;;;;;;4920283;29;20062;-94
2021/12/01 11:13:40;;;;;;;10.60;1.42;;;7.40;99.90;;;;;;4919898;29;20090;-94
2021/12/01 11:16:07;;;;;;;15.02;1.63;;;7.40;99.90;;;;;;4919758;29;20038;-93
2021/12/01 11:18:36;;;;;;;13.40;2.15;;;7.50;99.90;;;;;;4919970;29;20027;-93
2021/12/01 11:21:08;;;;;;;6.18;1.27;;;7.60;99.90;;;;;;4920117;29;20122;-93
2021/12/01 11:23:42;;;;;;;15.10;1.40;;;7.60;99.90;;;;;;4919992;29;20516;-94
2021/12/01 11:26:09;;;;;;;16.27;5.03;;;7.60;99.90;;;;;;4919241;29;20047;-92
2021/12/01 11:28:50;;;;;;;12.15;2.42;;;7.60;99.90;;;;;;4919788;29;20024;-92
2021/12/01 11:31:22;;;;;;;15.43;1.83;;;7.50;99.90;;;;;;4919855;29;20495;-92
2021/12/01 11:33:49;;;;;;;16.50;1.40;;;7.50;99.90;;;;;;4919285;29;20031;-93
2021/12/01 11:36:20;;;;;;;10.32;1.55;;;7.40;99.90;;;;;;4920216;29;20066;-94
2021/12/01 11:38:58;;;;;;;6.40;1.20;;;7.30;99.90;;;;;;4920227;29;20032;-93
2021/12/01 11:41:25;;;;;;;14.70;1.35;;;7.30;99.90;;;;;;4920461;29;20032;-93
2021/12/01 11:43:51;;;;;;;9.95;1.33;;;7.30;99.90;;;;;;4920212;29;20034;-93
2021/12/01 11:46:18;;;;;;;11.07;1.33;;;7.30;99.90;;;;;;4919708;29;20026;-93
2021/12/01 11:48:55;;;;;;;9.88;1.40;;;7.30;99.90;;;;;;4919645;29;20055;-93
2021/12/01 11:51:37;;;;;;;8.23;1.35;;;7.40;99.90;;;;;;4919583;29;20182;-93
2021/12/01 11:54:16;;;;;;;12.65;2.03;;;7.60;99.90;;;;;;4919434;29;20046;-94
2021/12/01 11:57:04;;;;;;;9.05;1.25;;;7.90;99.90;;;;;;4919631;29;20060;-92
2021/12/01 11:59:38;;;;;;;14.95;1.25;;;8.30;99.90;;;;;;4920017;29;20466;-92
2021/12/01 12:02:07;;;;;;;11.68;1.35;;;8.40;99.90;;;;;;4920049;29;20082;-92
2021/12/01 12:04:46;;;;;;;7.60;1.08;;;8.40;99.90;;;;;;4919250;29;20042;-92
2021/12/01 12:07:16;;;;;;;12.80;2.20;;;8.40;99.90;;;;;;4919769;29;20027;-92
2021/12/01 12:10:02;;;;;;;6.85;1.40;;;8.50;99.90;;;;;;4919736;29;20039;-92
2021/12/01 12:12:48;;;;;;;10.90;2.85;;;8.60;99.90;;;;;;4919567;29;20043;-92
2021/12/01 12:15:46;;;;;;;8.48;1.60;;;8.50;99.90;;;;;;4919426;29;20541;-93
2021/12/01 12:18:33;;;;;;;8.18;1.40;;;8.40;99.90;;;;;;4918754;29;20031;-91
2021/12/01 12:24:24;;;;;;;7.38;1.65;;;8.20;99.90;;;;;;4936528;29;20047;-92
2021/12/01 12:26:58;;;;;;;10.93;1.88;;;8.10;99.90;;;;;;4918257;29;20043;-94
2021/12/01 12:29:29;;;;;;;13.50;3.20;;;8.00;99.90;;;;;;4919558;29;20622;-92
2021/12/01 12:32:16;;;;;;;8.30;1.35;;;7.90;99.90;;;;;;4919374;29;20032;-93
2021/12/01 12:34:51;;;;;;;11.35;1.65;;;7.80;99.90;;;;;;4919981;29;20028;-93
2021/12/01 12:37:26;;;;;;;9.88;1.70;;;7.80;99.90;;;;;;4925455;29;20028;-93
2021/12/01 12:39:53;;;;;;;9.68;1.63;;;7.70;99.90;;;;;;4927815;29;20035;-93
2021/12/01 12:42:19;;;;;;;8.55;1.40;;;7.70;99.90;;;;;;4923055;29;20042;-93
2021/12/01 12:44:51;;;;;;;11.23;1.73;;;7.70;99.90;;;;;;4925828;29;20079;-92
2021/12/01 12:47:40;;;;;;;10.30;1.90;;;7.70;99.90;;;;;;4931421;29;20030;-93
2021/12/01 12:50:14;;;;;;;10.07;2.63;;;7.70;99.90;;;;;;4932242;29;20075;-93
2021/12/01 12:52:47;;;;;;;8.40;1.77;;;7.70;99.90;;;;;;4932325;29;20064;-93
2021/12/01 12:55:22;;;;;;;10.38;1.58;;;7.70;99.90;;;;;;4932531;29;20035;-94
2021/12/01 12:58:05;;;;;;;6.22;1.42;;;7.80;99.90;;;;;;4934859;29;20056;-94
2021/12/01 13:00:48;;;;;;;4.78;0.50;;;7.80;99.90;;;;;;4937437;29;20028;-95
2021/12/01 13:03:23;;;;;;;1.13;0.60;;;7.60;99.90;;;;;;4929447;29;20038;-94
2021/12/01 13:05:54;;;;;;;1.65;0.43;;;7.40;99.90;;;;;;4927637;29;20067;-94
2021/12/01 13:08:40;;;;;;;2.85;0.43;;;7.20;99.90;;;;;;4929919;29;20027;-94
2021/12/01 13:11:13;;;;;;;1.05;0.30;;;6.90;99.90;;;;;;4927782;29;20040;-94